createdAt,value
2018-08-07T00:00:22.398Z,96.40
2018-08-07T00:02:52.079Z,96.50
2018-08-07T00:05:20.941Z,97.30
2018-08-07T00:07:52.267Z,98.10
2018-08-07T00:10:24.707Z,98.40
2018-08-07T00:12:54.335Z,99.20
2018-08-07T00:15:26.310Z,99.70
2018-08-07T00:17:55.207Z,99.90
2018-08-07T00:20:24.526Z,99.90
2018-08-07T00:22:53.759Z,99.90
2018-08-07T00:25:23.221Z,99.90
2018-08-07T00:27:52.407Z,99.90
2018-08-07T00:30:21.852Z,99.90
2018-08-07T00:32:51.058Z,99.90
2018-08-07T00:35:20.534Z,99.90
2018-08-07T00:40:19.415Z,99.90
2018-08-07T00:42:49.290Z,99.90
2018-08-07T00:45:20.395Z,99.90
2018-08-07T00:47:49.749Z,99.90
2018-08-07T00:50:20.532Z,99.90
2018-08-07T00:52:50.306Z,99.90
2018-08-07T00:55:20.106Z,99.90
2018-08-07T00:57:49.977Z,99.90
2018-08-07T01:00:18.834Z,99.90
2018-08-07T01:02:47.665Z,99.90
2018-08-07T01:05:17.942Z,99.90
2018-08-07T01:07:47.001Z,99.90
2018-08-07T01:10:17.635Z,99.90
2018-08-07T01:12:46.884Z,99.90
2018-08-07T01:15:18.208Z,99.90
2018-08-07T01:17:47.508Z,99.90
2018-08-07T01:20:17.813Z,99.90
2018-08-07T01:22:47.155Z,99.90
2018-08-07T01:25:19.577Z,99.90
2018-08-07T01:27:48.529Z,99.90
2018-08-07T01:30:20.096Z,99.90
2018-08-07T01:32:49.335Z,99.90
2018-08-07T01:35:18.779Z,99.90
2018-08-07T01:37:47.949Z,99.90
2018-08-07T01:40:17.446Z,99.90
2018-08-07T01:42:46.594Z,99.90
2018-08-07T01:45:16.026Z,99.90
2018-08-07T01:47:45.786Z,99.90
2018-08-07T01:50:15.706Z,99.90
2018-08-07T01:52:44.836Z,99.90
2018-08-07T01:55:19.585Z,99.90
2018-08-07T01:57:49.137Z,99.90
2018-08-07T02:00:18.315Z,99.90
2018-08-07T02:02:47.725Z,99.90
2018-08-07T02:05:16.876Z,99.90
2018-08-07T02:07:46.049Z,99.90
2018-08-07T02:10:16.973Z,99.90
2018-08-07T02:12:46.417Z,99.90
2018-08-07T02:15:15.730Z,99.90
2018-08-07T02:17:44.657Z,99.90
2018-08-07T02:20:15.039Z,99.90
2018-08-07T02:22:45.186Z,99.90
2018-08-07T02:25:18.817Z,99.90
2018-08-07T02:27:48.220Z,99.90
2018-08-07T02:30:17.629Z,99.90
2018-08-07T02:32:46.856Z,99.90
2018-08-07T02:35:17.095Z,99.90
2018-08-07T02:37:47.335Z,99.90
2018-08-07T02:40:17.539Z,99.90
2018-08-07T02:42:47.075Z,99.90
2018-08-07T02:45:19.157Z,99.90
2018-08-07T02:47:48.861Z,99.90
2018-08-07T02:50:19.339Z,99.90
2018-08-07T02:52:48.534Z,99.90
2018-08-07T02:55:17.378Z,99.90
2018-08-07T02:57:46.666Z,99.90
2018-08-07T03:00:19.762Z,99.90
2018-08-07T03:02:49.025Z,99.90
2018-08-07T03:05:19.019Z,99.90
2018-08-07T03:07:48.389Z,99.90
2018-08-07T03:10:17.755Z,99.90
2018-08-07T03:12:46.629Z,99.90
2018-08-07T03:15:17.684Z,99.90
2018-08-07T03:17:47.541Z,99.90
2018-08-07T03:20:17.572Z,99.90
2018-08-07T03:25:16.142Z,99.90
2018-08-07T03:27:45.857Z,99.90
2018-08-07T03:30:16.935Z,99.90
2018-08-07T03:32:46.555Z,99.90
2018-08-07T03:35:16.044Z,99.90
2018-08-07T03:37:46.117Z,99.90
2018-08-07T03:40:16.420Z,99.90
2018-08-07T03:42:45.711Z,99.90
2018-08-07T03:45:16.977Z,99.90
2018-08-07T03:47:46.689Z,99.90
2018-08-07T03:50:16.206Z,99.90
2018-08-07T03:52:45.440Z,99.90
2018-08-07T03:55:16.467Z,99.90
2018-08-07T03:57:46.165Z,99.90
2018-08-07T04:00:17.242Z,99.90
2018-08-07T04:02:46.719Z,99.90
2018-08-07T04:05:16.007Z,99.90
2018-08-07T04:07:45.150Z,99.90
2018-08-07T04:10:15.931Z,99.90
2018-08-07T04:12:45.440Z,99.90
2018-08-07T04:15:15.807Z,99.90
2018-08-07T04:17:45.352Z,99.90
2018-08-07T04:20:16.306Z,99.90
2018-08-07T04:22:45.812Z,99.90
2018-08-07T04:25:15.286Z,99.90
2018-08-07T04:27:44.874Z,99.90
2018-08-07T04:30:17.227Z,99.90
2018-08-07T04:32:46.642Z,99.90
2018-08-07T04:35:16.432Z,99.90
2018-08-07T04:37:45.962Z,99.90
2018-08-07T04:40:15.094Z,99.90
2018-08-07T04:42:44.610Z,99.90
2018-08-07T04:45:15.004Z,99.90
2018-08-07T04:47:45.146Z,99.90
2018-08-07T04:50:14.261Z,99.90
2018-08-07T04:52:43.609Z,99.90
2018-08-07T04:55:13.691Z,99.90
2018-08-07T04:57:42.749Z,99.90
2018-08-07T05:00:14.452Z,99.90
2018-08-07T05:02:44.505Z,99.90
2018-08-07T05:05:14.061Z,99.90
2018-08-07T05:07:43.216Z,99.90
2018-08-07T05:12:43.392Z,99.90
2018-08-07T05:15:13.069Z,99.90
2018-08-07T05:17:43.230Z,99.90
2018-08-07T05:20:12.999Z,99.90
2018-08-07T05:22:42.231Z,99.90
2018-08-07T05:25:11.950Z,99.90
2018-08-07T05:27:41.546Z,99.90
2018-08-07T05:30:13.342Z,99.90
2018-08-07T05:32:42.579Z,99.90
2018-08-07T05:35:13.271Z,99.90
2018-08-07T05:37:42.582Z,99.90
2018-08-07T05:40:12.119Z,99.90
2018-08-07T05:42:41.594Z,99.90
2018-08-07T05:45:13.095Z,99.90
2018-08-07T05:47:42.252Z,99.90
2018-08-07T05:50:13.914Z,99.90
2018-08-07T05:52:43.226Z,99.90
2018-08-07T05:55:12.504Z,99.90
2018-08-07T05:57:41.838Z,97.60
2018-08-07T06:00:13.268Z,97.20
2018-08-07T06:02:42.451Z,96.10
2018-08-07T06:05:11.348Z,96.10
2018-08-07T06:07:40.578Z,95.90
2018-08-07T06:10:11.285Z,94.90
2018-08-07T06:12:40.442Z,93.20
2018-08-07T06:17:40.913Z,90.70
2018-08-07T06:20:11.068Z,89.70
2018-08-07T06:22:40.212Z,88.30
2018-08-07T06:25:10.332Z,87.20
2018-08-07T06:27:39.757Z,85.50
2018-08-07T06:30:14.024Z,83.50
2018-08-07T06:32:43.256Z,81.10
2018-08-07T06:35:12.778Z,80.20
2018-08-07T06:37:41.992Z,77.60
2018-08-07T06:40:12.318Z,77.90
2018-08-07T06:42:41.514Z,76.90
2018-08-07T06:45:12.574Z,73.60
2018-08-07T06:47:41.692Z,71.90
2018-08-07T06:50:14.047Z,71.40
2018-08-07T06:52:43.535Z,68.20
2018-08-07T06:55:12.996Z,67.30
2018-08-07T06:57:42.409Z,65.80
2018-08-07T07:00:14.162Z,65.00
2018-08-07T07:02:43.214Z,65.20
2018-08-07T07:05:13.083Z,63.40
2018-08-07T07:07:42.428Z,62.20
2018-08-07T07:10:12.548Z,60.60
2018-08-07T07:12:42.442Z,60.00
2018-08-07T07:15:12.883Z,59.70
2018-08-07T07:17:43.744Z,58.80
2018-08-07T07:20:14.582Z,57.40
2018-08-07T07:22:45.308Z,57.50
2018-08-07T07:25:14.522Z,56.70
2018-08-07T07:27:43.839Z,56.70
2018-08-07T07:30:15.864Z,57.20
2018-08-07T07:32:46.691Z,55.00
2018-08-07T07:35:16.540Z,54.20
2018-08-07T07:40:14.317Z,51.70
2018-08-07T07:42:44.236Z,51.10
2018-08-07T07:45:15.486Z,50.00
2018-08-07T07:47:44.883Z,48.30
2018-08-07T07:50:16.399Z,48.30
2018-08-07T07:52:45.791Z,47.50
2018-08-07T07:55:16.300Z,46.70
2018-08-07T07:57:45.415Z,48.50
2018-08-07T08:00:18.097Z,47.20
2018-08-07T08:02:47.668Z,46.30
2018-08-07T08:05:16.870Z,46.20
2018-08-07T08:07:46.278Z,45.30
2018-08-07T08:10:15.363Z,45.10
2018-08-07T08:12:44.762Z,43.60
2018-08-07T08:15:15.651Z,45.50
2018-08-07T08:17:45.918Z,43.80
2018-08-07T08:20:17.286Z,43.30
2018-08-07T08:22:46.662Z,41.80
2018-08-07T08:25:15.994Z,40.60
2018-08-07T08:27:45.579Z,40.80
2018-08-07T08:30:16.201Z,41.00
2018-08-07T08:32:45.581Z,40.30
2018-08-07T08:35:15.844Z,39.60
2018-08-07T08:37:45.261Z,39.80
2018-08-07T08:42:44.223Z,38.90
2018-08-07T08:45:19.344Z,38.30
2018-08-07T08:47:51.397Z,37.80
2018-08-07T08:50:21.671Z,37.00
2018-08-07T08:52:51.133Z,36.60
2018-08-07T08:55:19.998Z,36.80
2018-08-07T08:57:49.120Z,36.40
2018-08-07T09:00:22.796Z,35.70
2018-08-07T09:02:52.636Z,35.90
2018-08-07T09:05:21.882Z,34.50
2018-08-07T09:07:51.000Z,33.00
2018-08-07T09:10:23.042Z,33.70
2018-08-07T09:12:53.103Z,34.60
2018-08-07T09:15:22.039Z,34.50
2018-08-07T09:17:52.197Z,34.70
2018-08-07T09:20:23.384Z,33.00
2018-08-07T09:22:53.599Z,33.20
2018-08-07T09:27:52.998Z,34.70
2018-08-07T09:30:26.535Z,34.50
2018-08-07T09:32:57.031Z,33.70
2018-08-07T09:35:26.449Z,32.60
2018-08-07T09:37:56.102Z,33.00
2018-08-07T09:40:25.410Z,33.00
2018-08-07T09:42:55.657Z,32.10
2018-08-07T09:45:30.568Z,32.30
2018-08-07T09:48:02.279Z,33.10
2018-08-07T09:50:32.781Z,33.10
2018-08-07T09:53:02.903Z,32.40
2018-08-07T09:55:32.667Z,32.60
2018-08-07T09:58:03.845Z,31.40
2018-08-07T10:00:38.699Z,31.50
2018-08-07T10:03:10.920Z,31.70
2018-08-07T10:05:40.159Z,31.30
2018-08-07T10:08:10.388Z,30.80
2018-08-07T10:10:39.960Z,31.70
2018-08-07T10:13:10.384Z,32.20
2018-08-07T10:15:40.559Z,32.00
2018-08-07T10:18:10.146Z,31.60
2018-08-07T10:20:39.115Z,31.00
2018-08-07T10:23:08.399Z,30.40
2018-08-07T10:25:37.538Z,30.20
2018-08-07T10:28:07.059Z,29.70
2018-08-07T10:30:36.605Z,30.00
2018-08-07T10:33:06.102Z,29.90
2018-08-07T10:38:05.135Z,30.00
2018-08-07T10:40:34.248Z,29.80
2018-08-07T10:43:03.778Z,30.00
2018-08-07T10:45:33.556Z,30.60
2018-08-07T10:48:02.969Z,30.50
2018-08-07T10:50:32.428Z,29.90
2018-08-07T10:53:01.953Z,29.30
2018-08-07T10:55:31.486Z,28.90
2018-08-07T10:58:01.128Z,29.40
2018-08-07T11:00:33.842Z,30.00
2018-08-07T11:03:03.620Z,29.60
2018-08-07T11:05:33.122Z,29.20
2018-08-07T11:08:02.930Z,28.80
2018-08-07T11:10:32.209Z,29.00
2018-08-07T11:13:01.349Z,29.30
2018-08-07T11:15:32.768Z,29.60
2018-08-07T11:18:02.610Z,29.90
2018-08-07T11:20:32.041Z,29.30
2018-08-07T11:23:02.478Z,29.40
2018-08-07T11:25:32.559Z,29.30
2018-08-07T11:28:02.169Z,28.60
2018-08-07T11:30:31.563Z,29.20
2018-08-07T11:33:01.749Z,28.40
2018-08-07T11:35:31.074Z,28.10
2018-08-07T11:38:02.539Z,27.70
2018-08-07T11:40:31.829Z,27.40
2018-08-07T11:43:01.742Z,27.10
2018-08-07T11:45:33.718Z,27.10
2018-08-07T11:48:03.621Z,26.50
2018-08-07T11:50:33.365Z,26.40
2018-08-07T11:53:02.932Z,25.60
2018-08-07T11:55:32.713Z,25.40
2018-08-07T11:58:02.626Z,25.70
2018-08-07T12:00:33.776Z,26.10
2018-08-07T12:03:03.885Z,25.90
2018-08-07T12:05:32.714Z,26.40
2018-08-07T12:08:02.383Z,25.90
2018-08-07T12:10:31.922Z,24.50
2018-08-07T12:13:01.574Z,24.90
2018-08-07T12:15:32.248Z,24.40
2018-08-07T12:18:01.938Z,24.90
2018-08-07T12:20:32.616Z,23.50
2018-08-07T12:23:02.045Z,24.70
2018-08-07T12:25:32.821Z,24.00
2018-08-07T12:28:02.592Z,24.00
2018-08-07T12:30:32.040Z,23.40
2018-08-07T12:33:02.271Z,23.30
2018-08-07T12:35:32.487Z,24.00
2018-08-07T12:38:02.453Z,23.50
2018-08-07T12:40:32.819Z,23.90
2018-08-07T12:43:03.765Z,23.20
2018-08-07T12:45:33.170Z,23.10
2018-08-07T12:48:03.130Z,23.10
2018-08-07T12:50:32.899Z,23.20
2018-08-07T12:53:02.760Z,22.90
2018-08-07T12:55:31.934Z,22.80
2018-08-07T12:58:01.083Z,23.10
2018-08-07T13:00:31.642Z,23.80
2018-08-07T13:03:00.739Z,23.70
2018-08-07T13:05:29.883Z,23.30
2018-08-07T13:07:58.970Z,23.20
2018-08-07T13:10:28.461Z,23.60
2018-08-07T13:12:57.583Z,23.50
2018-08-07T13:15:26.690Z,23.80
2018-08-07T13:17:56.446Z,23.90
2018-08-07T13:20:26.155Z,23.20
2018-08-07T13:22:55.880Z,23.00
2018-08-07T13:25:25.576Z,22.30
2018-08-07T13:27:55.042Z,22.50
2018-08-07T13:30:26.668Z,23.00
2018-08-07T13:32:56.640Z,22.90
2018-08-07T13:35:26.353Z,23.00
2018-08-07T13:37:56.009Z,22.80
2018-08-07T13:40:26.176Z,22.60
2018-08-07T13:42:55.794Z,22.80
2018-08-07T13:45:26.075Z,23.10
2018-08-07T13:47:55.270Z,23.50
2018-08-07T13:50:25.152Z,24.10
2018-08-07T13:52:54.344Z,24.10
2018-08-07T13:55:24.694Z,24.60
2018-08-07T13:57:53.882Z,24.40
2018-08-07T14:00:25.600Z,23.30
2018-08-07T14:02:55.939Z,23.10
2018-08-07T14:05:27.001Z,22.70
2018-08-07T14:07:57.805Z,22.20
2018-08-07T14:10:28.834Z,22.80
2018-08-07T14:12:58.636Z,22.80
2018-08-07T14:15:29.015Z,23.40
2018-08-07T14:17:58.545Z,23.20
2018-08-07T14:20:27.684Z,23.20
2018-08-07T14:22:56.853Z,23.70
2018-08-07T14:25:27.409Z,24.00
2018-08-07T14:27:56.530Z,24.00
2018-08-07T14:30:27.891Z,24.40
2018-08-07T14:32:57.740Z,24.50
2018-08-07T14:35:26.861Z,24.70
2018-08-07T14:37:55.985Z,25.60
2018-08-07T14:40:26.798Z,26.20
2018-08-07T14:42:56.691Z,27.00
2018-08-07T14:45:27.570Z,27.40
2018-08-07T14:47:57.071Z,27.80
2018-08-07T14:50:28.183Z,27.60
2018-08-07T14:52:57.668Z,27.90
2018-08-07T14:55:26.997Z,28.00
2018-08-07T14:57:55.825Z,28.10
2018-08-07T15:00:27.590Z,28.90
2018-08-07T15:02:56.775Z,28.70
2018-08-07T15:05:26.601Z,29.30
2018-08-07T15:07:56.511Z,29.10
2018-08-07T15:10:26.765Z,29.80
2018-08-07T15:15:27.428Z,30.00
2018-08-07T15:17:56.666Z,30.40
2018-08-07T15:20:27.173Z,30.00
2018-08-07T15:22:57.013Z,30.00
2018-08-07T15:25:26.326Z,30.30
2018-08-07T15:27:55.360Z,30.80
2018-08-07T15:30:26.031Z,31.30
2018-08-07T15:32:55.433Z,30.70
2018-08-07T15:35:26.040Z,30.90
2018-08-07T15:37:56.402Z,31.10
2018-08-07T15:40:26.982Z,30.60
2018-08-07T15:42:57.054Z,31.00
2018-08-07T15:45:26.441Z,31.10
2018-08-07T15:47:56.700Z,30.90
2018-08-07T15:50:25.524Z,31.50
2018-08-07T15:52:58.624Z,31.80
2018-08-07T15:55:28.559Z,31.60
2018-08-07T15:57:57.770Z,31.60
2018-08-07T16:00:29.191Z,31.20
2018-08-07T16:03:00.733Z,32.60
2018-08-07T16:05:29.760Z,32.50
2018-08-07T16:07:59.161Z,32.50
2018-08-07T16:10:28.262Z,32.70
2018-08-07T16:12:57.523Z,33.60
2018-08-07T16:15:26.654Z,32.30
2018-08-07T16:17:56.175Z,32.50
2018-08-07T16:22:54.854Z,32.60
2018-08-07T16:25:24.400Z,33.30
2018-08-07T16:27:53.696Z,34.30
2018-08-07T16:30:26.222Z,32.50
2018-08-07T16:32:55.579Z,33.70
2018-08-07T16:35:24.722Z,33.00
2018-08-07T16:37:54.491Z,32.90
2018-08-07T16:40:24.870Z,34.00
2018-08-07T16:42:54.628Z,34.40
2018-08-07T16:45:24.708Z,33.90
2018-08-07T16:47:53.859Z,33.60
2018-08-07T16:50:25.241Z,33.90
2018-08-07T16:52:55.283Z,35.00
2018-08-07T16:55:27.064Z,34.70
2018-08-07T16:57:55.884Z,34.80
2018-08-07T17:00:25.083Z,34.50
2018-08-07T17:02:54.219Z,34.20
2018-08-07T17:05:23.808Z,34.50
2018-08-07T17:07:52.901Z,34.80
2018-08-07T17:10:24.901Z,35.00
2018-08-07T17:16:11.096Z,34.90
2018-08-07T17:18:39.180Z,34.60
2018-08-07T17:21:07.616Z,35.10
2018-08-07T17:23:36.461Z,36.00
2018-08-07T17:26:04.576Z,35.00
2018-08-07T17:28:32.810Z,35.20
2018-08-07T17:31:01.423Z,35.40
2018-08-07T17:33:29.950Z,35.50
2018-08-07T17:35:58.099Z,35.60
2018-08-07T17:38:26.939Z,36.10
2018-08-07T17:40:55.086Z,35.90
2018-08-07T17:43:23.157Z,36.00
2018-08-07T17:45:51.277Z,36.20
2018-08-07T17:48:19.370Z,36.40
2018-08-07T17:50:47.503Z,36.00
2018-08-07T17:53:15.773Z,35.80
2018-08-07T17:55:43.918Z,36.30
2018-08-07T17:58:12.380Z,35.70
2018-08-07T18:00:40.915Z,36.00
2018-08-07T18:03:09.020Z,36.10
2018-08-07T18:05:37.726Z,36.30
2018-08-07T18:08:05.805Z,36.20
2018-08-07T18:10:34.275Z,36.70
2018-08-07T18:13:02.641Z,37.00
2018-08-07T18:15:30.752Z,36.70
2018-08-07T18:17:59.312Z,37.00
2018-08-07T18:20:28.152Z,36.80
2018-08-07T18:22:56.296Z,37.20
2018-08-07T18:25:27.929Z,36.70
2018-08-07T18:27:56.255Z,37.30
2018-08-07T18:30:25.634Z,37.60
2018-08-07T18:32:53.778Z,37.70
2018-08-07T18:35:24.463Z,37.90
2018-08-07T18:37:53.306Z,38.40
2018-08-07T18:40:21.387Z,38.30
2018-08-07T18:42:49.685Z,38.60
2018-08-07T18:45:18.171Z,38.80
2018-08-07T18:47:47.024Z,39.30
2018-08-07T18:50:19.416Z,39.10
2018-08-07T18:52:47.513Z,39.10
2018-08-07T18:55:15.862Z,39.50
2018-08-07T18:57:45.180Z,39.60
2018-08-07T19:00:15.370Z,40.00
2018-08-07T19:02:43.449Z,40.10
2018-08-07T19:05:15.326Z,40.30
2018-08-07T19:07:43.891Z,41.10
2018-08-07T19:10:12.545Z,40.20
2018-08-07T19:12:41.480Z,40.60
2018-08-07T19:15:10.886Z,40.90
2018-08-07T19:17:39.257Z,40.80
2018-08-07T19:20:08.386Z,40.80
2018-08-07T19:22:36.469Z,41.10
2018-08-07T19:25:05.802Z,41.40
2018-08-07T19:27:34.058Z,41.50
2018-08-07T19:30:02.128Z,41.60
2018-08-07T19:32:30.982Z,42.00
2018-08-07T19:34:59.871Z,42.30
2018-08-07T19:37:28.337Z,42.30
2018-08-07T19:39:56.444Z,42.50
2018-08-07T19:42:24.530Z,43.10
2018-08-07T19:44:52.979Z,42.80
2018-08-07T19:47:21.804Z,43.00
2018-08-07T19:49:50.250Z,43.00
2018-08-07T19:52:18.655Z,43.10
2018-08-07T19:54:46.926Z,43.50
2018-08-07T19:57:15.365Z,43.60
2018-08-07T19:59:43.498Z,43.70
2018-08-07T20:02:11.579Z,44.00
2018-08-07T20:04:39.734Z,44.60
2018-08-07T20:07:07.949Z,44.50
2018-08-07T20:09:36.032Z,44.30
2018-08-07T20:12:04.440Z,44.70
2018-08-07T20:14:32.940Z,44.60
2018-08-07T20:17:01.717Z,44.40
2018-08-07T20:19:30.166Z,44.20
2018-08-07T20:21:58.285Z,44.40
2018-08-07T20:24:26.410Z,44.30
2018-08-07T20:26:55.398Z,44.70
2018-08-07T20:29:24.150Z,44.60
2018-08-07T20:31:52.612Z,44.80
2018-08-07T20:34:21.371Z,45.00
2018-08-07T20:36:49.452Z,44.50
2018-08-07T20:39:17.872Z,45.10
2018-08-07T20:41:45.971Z,45.00
2018-08-07T20:44:14.325Z,44.90
2018-08-07T20:46:42.373Z,45.10
2018-08-07T20:49:11.376Z,45.50
2018-08-07T20:51:39.450Z,45.10
2018-08-07T20:54:07.577Z,45.40
2018-08-07T20:56:35.694Z,45.40
2018-08-07T20:59:03.825Z,46.00
2018-08-07T21:01:32.122Z,46.00
2018-08-07T21:04:00.610Z,46.20
2018-08-07T21:06:29.034Z,45.50
2018-08-07T21:08:57.114Z,46.00
2018-08-07T21:11:25.239Z,46.40
2018-08-07T21:13:53.456Z,46.90
2018-08-07T21:16:21.613Z,47.50
2018-08-07T21:18:50.198Z,46.50
2018-08-07T21:21:18.904Z,46.50
2018-08-07T21:23:46.994Z,46.70
2018-08-07T21:26:15.120Z,46.60
2018-08-07T21:28:43.226Z,46.20
2018-08-07T21:31:11.502Z,45.90
2018-08-07T21:33:40.083Z,47.00
2018-08-07T21:36:08.167Z,46.20
2018-08-07T21:38:36.601Z,46.00
2018-08-07T21:41:04.698Z,46.40
2018-08-07T21:43:33.122Z,46.10
2018-08-07T21:46:01.248Z,45.90
2018-08-07T21:48:29.361Z,45.90
2018-08-07T21:50:57.463Z,46.00
2018-08-07T21:53:25.547Z,46.00
2018-08-07T21:55:54.343Z,46.00
2018-08-07T21:58:22.412Z,46.30
2018-08-07T22:00:51.342Z,46.10
2018-08-07T22:03:19.586Z,46.10
2018-08-07T22:05:48.509Z,46.10
2018-08-07T22:08:16.617Z,46.40
2018-08-07T22:10:45.054Z,46.20
2018-08-07T22:13:13.157Z,46.60
2018-08-07T22:15:41.192Z,46.40
2018-08-07T22:18:10.548Z,46.70
2018-08-07T22:20:39.002Z,46.70
2018-08-07T22:23:07.213Z,46.80
2018-08-07T22:25:35.556Z,47.00
2018-08-07T22:28:04.422Z,46.80
2018-08-07T22:30:32.508Z,47.00
2018-08-07T22:33:00.876Z,47.00
2018-08-07T22:35:29.330Z,46.90
2018-08-07T22:37:57.823Z,47.00
2018-08-07T22:40:27.417Z,47.10
2018-08-07T22:42:55.494Z,47.20
2018-08-07T22:45:23.550Z,47.10
2018-08-07T22:47:51.834Z,47.40
2018-08-07T22:50:19.895Z,47.30
2018-08-07T22:52:47.972Z,47.50
2018-08-07T22:55:18.089Z,47.60
2018-08-07T22:57:46.448Z,47.40
2018-08-07T23:00:18.127Z,47.50
2018-08-07T23:02:46.322Z,47.60
2018-08-07T23:05:15.516Z,47.90
2018-08-07T23:07:43.593Z,48.00
2018-08-07T23:10:14.802Z,48.00
2018-08-07T23:12:43.802Z,48.10
2018-08-07T23:15:14.259Z,47.80
2018-08-07T23:17:43.065Z,48.20
2018-08-07T23:20:12.453Z,48.20
2018-08-07T23:22:40.849Z,48.50
2018-08-07T23:25:09.501Z,48.60
2018-08-07T23:27:37.740Z,48.80
2018-08-07T23:30:07.437Z,48.90
2018-08-07T23:32:35.440Z,49.00
2018-08-07T23:35:03.553Z,49.10
2018-08-07T23:37:31.607Z,49.50
2018-08-07T23:39:59.996Z,49.40
2018-08-07T23:42:28.717Z,49.60
2018-08-07T23:44:57.092Z,49.70
2018-08-07T23:47:26.028Z,50.00
2018-08-07T23:49:54.188Z,49.90
2018-08-07T23:52:22.250Z,50.00
2018-08-07T23:54:50.640Z,50.10
2018-08-07T23:57:19.121Z,50.30
2018-08-07T23:59:47.335Z,50.90
